Vocklabruck, Austria
Current Conditions -  °F | °C
As of 5:50 PM on Sunday 23 Nov 2014 (Local Time) from LOWL Reporting Station
Broken Clouds Broken Clouds  
Wind Chill: 36°   Ceiling: 1500
Heat Index: 41°   Visibility: 6mi
Dew Point: 37°   Wind: 8mph
Humidity: 87%   Direction: 80°E
Pressure: 30.27"   Gusts: NA
Location:  48.01°N, 13.65°E
Report Text: LOWL 231550Z 08007KT 9000 FEW012 BKN015 05/03 Q1025 NOSIG
Loading
Personal Weather Stations






























Interactive Weather Map New forecast layout! Learn more

10-Day Weather Forecast

Advertisements
Track Severe Weather on mobile